sensor_id;sensor_type;location;lat;lon;timestamp;temperature;humidity
54518;DHT22;40423;53.176;6.002;2022-10-04T00:01:12;13.10;99.90
54518;DHT22;40423;53.176;6.002;2022-10-04T00:03:45;13.10;99.90
54518;DHT22;40423;53.176;6.002;2022-10-04T00:06:18;13.10;99.90
54518;DHT22;40423;53.176;6.002;2022-10-04T00:08:49;13.10;99.90
54518;DHT22;40423;53.176;6.002;2022-10-04T00:11:27;13.10;99.90
54518;DHT22;40423;53.176;6.002;2022-10-04T00:13:59;13.10;99.90
54518;DHT22;40423;53.176;6.002;2022-10-04T00:16:33;13.10;99.90
54518;DHT22;40423;53.176;6.002;2022-10-04T00:22:11;13.10;99.90
54518;DHT22;40423;53.176;6.002;2022-10-04T00:24:38;13.00;99.90
54518;DHT22;40423;53.176;6.002;2022-10-04T00:27:25;13.00;99.90
54518;DHT22;40423;53.176;6.002;2022-10-04T00:32:44;13.10;99.90
54518;DHT22;40423;53.176;6.002;2022-10-04T00:38:14;13.00;99.90
54518;DHT22;40423;53.176;6.002;2022-10-04T00:40:56;13.00;99.90
54518;DHT22;40423;53.176;6.002;2022-10-04T00:43:38;13.00;99.90
54518;DHT22;40423;53.176;6.002;2022-10-04T00:46:20;13.00;99.90
54518;DHT22;40423;53.176;6.002;2022-10-04T00:49:02;13.00;99.90
54518;DHT22;40423;53.176;6.002;2022-10-04T00:51:34;12.60;99.90
54518;DHT22;40423;53.176;6.002;2022-10-04T00:56:53;13.00;99.90
54518;DHT22;40423;53.176;6.002;2022-10-04T01:01:48;12.90;99.90
54518;DHT22;40423;53.176;6.002;2022-10-04T01:04:37;13.00;99.90
54518;DHT22;40423;53.176;6.002;2022-10-04T01:07:05;13.00;99.90
54518;DHT22;40423;53.176;6.002;2022-10-04T01:09:35;13.00;99.90
54518;DHT22;40423;53.176;6.002;2022-10-04T01:12:06;12.90;99.90
54518;DHT22;40423;53.176;6.002;2022-10-04T01:14:54;12.90;99.90
54518;DHT22;40423;53.176;6.002;2022-10-04T01:17:24;12.90;99.90
54518;DHT22;40423;53.176;6.002;2022-10-04T01:19:51;13.00;99.90
54518;DHT22;40423;53.176;6.002;2022-10-04T01:25:02;13.00;99.90
54518;DHT22;40423;53.176;6.002;2022-10-04T01:27:39;13.00;99.90
54518;DHT22;40423;53.176;6.002;2022-10-04T01:30:16;13.00;99.90
54518;DHT22;40423;53.176;6.002;2022-10-04T01:32:42;13.00;99.90
54518;DHT22;40423;53.176;6.002;2022-10-04T01:35:09;12.90;99.90
54518;DHT22;40423;53.176;6.002;2022-10-04T01:37:37;12.90;99.90
54518;DHT22;40423;53.176;6.002;2022-10-04T01:40:05;12.90;99.90
54518;DHT22;40423;53.176;6.002;2022-10-04T01:42:35;12.90;99.90
54518;DHT22;40423;53.176;6.002;2022-10-04T01:47:41;12.80;99.90
54518;DHT22;40423;53.176;6.002;2022-10-04T01:50:25;12.80;99.90
54518;DHT22;40423;53.176;6.002;2022-10-04T01:52:56;12.70;99.90
54518;DHT22;40423;53.176;6.002;2022-10-04T01:55:32;12.70;99.90
54518;DHT22;40423;53.176;6.002;2022-10-04T01:58:10;12.60;99.90
54518;DHT22;40423;53.176;6.002;2022-10-04T02:00:42;12.70;99.90
54518;DHT22;40423;53.176;6.002;2022-10-04T02:03:16;12.60;99.90
54518;DHT22;40423;53.176;6.002;2022-10-04T02:05:50;12.60;99.90
54518;DHT22;40423;53.176;6.002;2022-10-04T02:08:23;12.50;99.90
54518;DHT22;40423;53.176;6.002;2022-10-04T02:10:50;12.60;99.90
54518;DHT22;40423;53.176;6.002;2022-10-04T02:13:18;12.50;99.90
54518;DHT22;40423;53.176;6.002;2022-10-04T02:15:45;13.00;99.90
54518;DHT22;40423;53.176;6.002;2022-10-04T02:18:17;12.40;99.90
54518;DHT22;40423;53.176;6.002;2022-10-04T02:20:46;12.40;99.90
54518;DHT22;40423;53.176;6.002;2022-10-04T02:23:16;12.40;99.90
54518;DHT22;40423;53.176;6.002;2022-10-04T02:25:42;12.30;99.90
54518;DHT22;40423;53.176;6.002;2022-10-04T02:28:10;12.30;99.90
54518;DHT22;40423;53.176;6.002;2022-10-04T02:30:55;12.30;99.90
54518;DHT22;40423;53.176;6.002;2022-10-04T02:33:44;12.30;99.90
54518;DHT22;40423;53.176;6.002;2022-10-04T02:36:12;12.20;99.90
54518;DHT22;40423;53.176;6.002;2022-10-04T02:38:50;12.20;99.90
54518;DHT22;40423;53.176;6.002;2022-10-04T02:41:33;12.20;99.90
54518;DHT22;40423;53.176;6.002;2022-10-04T02:44:19;12.10;99.90
54518;DHT22;40423;53.176;6.002;2022-10-04T02:46:56;12.10;99.90
54518;DHT22;40423;53.176;6.002;2022-10-04T02:52:07;12.00;99.90
54518;DHT22;40423;53.176;6.002;2022-10-04T02:57:29;11.90;99.90
54518;DHT22;40423;53.176;6.002;2022-10-04T03:02:40;11.90;99.90
54518;DHT22;40423;53.176;6.002;2022-10-04T03:05:11;11.80;99.90
54518;DHT22;40423;53.176;6.002;2022-10-04T03:07:39;11.80;99.90
54518;DHT22;40423;53.176;6.002;2022-10-04T03:10:10;11.80;99.90
54518;DHT22;40423;53.176;6.002;2022-10-04T03:12:38;11.80;99.90
54518;DHT22;40423;53.176;6.002;2022-10-04T03:15:08;11.70;99.90
54518;DHT22;40423;53.176;6.002;2022-10-04T03:17:34;11.70;99.90
54518;DHT22;40423;53.176;6.002;2022-10-04T03:20:03;11.70;99.90
54518;DHT22;40423;53.176;6.002;2022-10-04T03:22:29;11.60;99.90
54518;DHT22;40423;53.176;6.002;2022-10-04T03:24:57;11.60;99.90
54518;DHT22;40423;53.176;6.002;2022-10-04T03:27:25;11.60;99.90
54518;DHT22;40423;53.176;6.002;2022-10-04T03:29:54;11.60;99.90
54518;DHT22;40423;53.176;6.002;2022-10-04T03:32:20;11.60;99.90
54518;DHT22;40423;53.176;6.002;2022-10-04T03:34:58;11.50;99.90
54518;DHT22;40423;53.176;6.002;2022-10-04T03:37:25;11.70;99.90
54518;DHT22;40423;53.176;6.002;2022-10-04T03:39:53;11.50;99.90
54518;DHT22;40423;53.176;6.002;2022-10-04T03:42:20;11.50;99.90
54518;DHT22;40423;53.176;6.002;2022-10-04T03:44:50;11.50;99.90
54518;DHT22;40423;53.176;6.002;2022-10-04T03:47:34;11.50;99.90
54518;DHT22;40423;53.176;6.002;2022-10-04T03:50:06;11.50;99.90
54518;DHT22;40423;53.176;6.002;2022-10-04T03:52:38;11.40;99.90
54518;DHT22;40423;53.176;6.002;2022-10-04T03:55:09;11.40;99.90
54518;DHT22;40423;53.176;6.002;2022-10-04T03:57:36;11.40;99.90
54518;DHT22;40423;53.176;6.002;2022-10-04T04:00:04;11.40;99.90
54518;DHT22;40423;53.176;6.002;2022-10-04T04:02:54;11.40;99.90
54518;DHT22;40423;53.176;6.002;2022-10-04T04:08:05;11.40;99.90
54518;DHT22;40423;53.176;6.002;2022-10-04T04:10:37;11.40;99.90
54518;DHT22;40423;53.176;6.002;2022-10-04T04:15:54;11.40;99.90
54518;DHT22;40423;53.176;6.002;2022-10-04T04:18:25;11.30;99.90
54518;DHT22;40423;53.176;6.002;2022-10-04T04:20:54;11.40;99.90
54518;DHT22;40423;53.176;6.002;2022-10-04T04:23:38;11.40;99.90
54518;DHT22;40423;53.176;6.002;2022-10-04T04:26:28;11.30;99.90
54518;DHT22;40423;53.176;6.002;2022-10-04T04:31:51;11.30;99.90
54518;DHT22;40423;53.176;6.002;2022-10-04T04:34:25;11.30;99.90
54518;DHT22;40423;53.176;6.002;2022-10-04T04:37:03;11.30;99.90
54518;DHT22;40423;53.176;6.002;2022-10-04T04:39:30;11.30;99.90
54518;DHT22;40423;53.176;6.002;2022-10-04T04:47:38;11.30;99.90
54518;DHT22;40423;53.176;6.002;2022-10-04T04:52:38;11.30;99.90
54518;DHT22;40423;53.176;6.002;2022-10-04T04:55:05;11.30;99.90
54518;DHT22;40423;53.176;6.002;2022-10-04T04:57:32;11.30;99.90
54518;DHT22;40423;53.176;6.002;2022-10-04T05:00:00;11.20;99.90
54518;DHT22;40423;53.176;6.002;2022-10-04T05:02:36;11.10;99.90
54518;DHT22;40423;53.176;6.002;2022-10-04T05:05:24;11.20;99.90
54518;DHT22;40423;53.176;6.002;2022-10-04T05:13:36;11.20;99.90
54518;DHT22;40423;53.176;6.002;2022-10-04T05:16:10;11.10;99.90
54518;DHT22;40423;53.176;6.002;2022-10-04T05:18:38;11.10;99.90
54518;DHT22;40423;53.176;6.002;2022-10-04T05:21:12;11.20;99.90
54518;DHT22;40423;53.176;6.002;2022-10-04T05:23:39;11.10;99.90
54518;DHT22;40423;53.176;6.002;2022-10-04T05:26:10;11.10;99.90
54518;DHT22;40423;53.176;6.002;2022-10-04T05:28:37;11.10;99.90
54518;DHT22;40423;53.176;6.002;2022-10-04T05:33:48;11.10;99.90
54518;DHT22;40423;53.176;6.002;2022-10-04T05:36:30;11.10;99.90
54518;DHT22;40423;53.176;6.002;2022-10-04T05:40:10;11.10;99.90
54518;DHT22;40423;53.176;6.002;2022-10-04T05:42:19;11.10;99.90
54518;DHT22;40423;53.176;6.002;2022-10-04T05:44:54;11.10;99.90
54518;DHT22;40423;53.176;6.002;2022-10-04T05:47:24;11.00;99.90
54518;DHT22;40423;53.176;6.002;2022-10-04T05:49:54;11.10;99.90
54518;DHT22;40423;53.176;6.002;2022-10-04T05:52:32;11.00;99.90
54518;DHT22;40423;53.176;6.002;2022-10-04T06:00:40;11.00;99.90
54518;DHT22;40423;53.176;6.002;2022-10-04T06:05:51;11.00;99.90
54518;DHT22;40423;53.176;6.002;2022-10-04T06:08:40;11.00;99.90
54518;DHT22;40423;53.176;6.002;2022-10-04T06:22:45;11.00;99.90
54518;DHT22;40423;53.176;6.002;2022-10-04T06:25:18;11.00;99.90
54518;DHT22;40423;53.176;6.002;2022-10-04T06:27:54;11.00;99.90
54518;DHT22;40423;53.176;6.002;2022-10-04T06:30:23;11.00;99.90
54518;DHT22;40423;53.176;6.002;2022-10-04T06:46:14;11.90;99.90
54518;DHT22;40423;53.176;6.002;2022-10-04T07:01:52;11.90;99.90
54518;DHT22;40423;53.176;6.002;2022-10-04T07:10:15;12.20;99.90
54518;DHT22;40423;53.176;6.002;2022-10-04T07:12:49;12.30;99.90
54518;DHT22;40423;53.176;6.002;2022-10-04T07:15:27;12.30;99.90
54518;DHT22;40423;53.176;6.002;2022-10-04T07:17:55;12.40;99.90
54518;DHT22;40423;53.176;6.002;2022-10-04T07:20:29;12.50;99.90
54518;DHT22;40423;53.176;6.002;2022-10-04T07:23:04;12.50;99.90
54518;DHT22;40423;53.176;6.002;2022-10-04T07:25:44;12.50;99.90
54518;DHT22;40423;53.176;6.002;2022-10-04T07:28:16;12.50;99.90
54518;DHT22;40423;53.176;6.002;2022-10-04T07:31:10;12.50;99.90
54518;DHT22;40423;53.176;6.002;2022-10-04T07:33:48;12.50;99.90
54518;DHT22;40423;53.176;6.002;2022-10-04T07:36:28;12.50;99.90
54518;DHT22;40423;53.176;6.002;2022-10-04T07:38:58;12.50;99.90
54518;DHT22;40423;53.176;6.002;2022-10-04T07:41:34;12.50;99.90
54518;DHT22;40423;53.176;6.002;2022-10-04T07:47:12;12.40;99.90
54518;DHT22;40423;53.176;6.002;2022-10-04T07:49:42;12.40;99.90
54518;DHT22;40423;53.176;6.002;2022-10-04T07:55:44;12.40;99.90
54518;DHT22;40423;53.176;6.002;2022-10-04T07:58:32;12.40;99.90
54518;DHT22;40423;53.176;6.002;2022-10-04T08:09:20;13.00;99.90
54518;DHT22;40423;53.176;6.002;2022-10-04T08:11:58;13.20;99.90
54518;DHT22;40423;53.176;6.002;2022-10-04T08:20:46;13.70;99.90
54518;DHT22;40423;53.176;6.002;2022-10-04T08:25:55;13.90;99.90
54518;DHT22;40423;53.176;6.002;2022-10-04T08:42:51;14.50;99.90
54518;DHT22;40423;53.176;6.002;2022-10-04T08:54:13;14.80;99.90
54518;DHT22;40423;53.176;6.002;2022-10-04T09:21:09;15.60;99.90
54518;DHT22;40423;53.176;6.002;2022-10-04T09:26:55;15.80;99.90
54518;DHT22;40423;53.176;6.002;2022-10-04T09:33:03;16.00;99.90
54518;DHT22;40423;53.176;6.002;2022-10-04T09:49:28;16.20;99.90
54518;DHT22;40423;53.176;6.002;2022-10-04T10:11:41;16.40;99.90
54518;DHT22;40423;53.176;6.002;2022-10-04T10:22:29;16.60;99.90
54518;DHT22;40423;53.176;6.002;2022-10-04T10:30:46;16.60;99.90
54518;DHT22;40423;53.176;6.002;2022-10-04T10:47:52;16.30;99.90
54518;DHT22;40423;53.176;6.002;2022-10-04T10:53:52;16.20;99.90
54518;DHT22;40423;53.176;6.002;2022-10-04T11:02:41;16.10;99.90
54518;DHT22;40423;53.176;6.002;2022-10-04T11:24:32;17.60;99.90
54518;DHT22;40423;53.176;6.002;2022-10-04T11:30:07;17.40;99.90
54518;DHT22;40423;53.176;6.002;2022-10-04T11:49:15;17.30;99.90
54518;DHT22;40423;53.176;6.002;2022-10-04T11:57:29;17.50;99.90
54518;DHT22;40423;53.176;6.002;2022-10-04T12:08:13;17.90;99.90
54518;DHT22;40423;53.176;6.002;2022-10-04T12:10:42;18.00;99.90
54518;DHT22;40423;53.176;6.002;2022-10-04T12:18:49;18.60;99.90
54518;DHT22;40423;53.176;6.002;2022-10-04T12:22:17;18.80;99.90
54518;DHT22;40423;53.176;6.002;2022-10-04T12:30:20;18.70;99.90
54518;DHT22;40423;53.176;6.002;2022-10-04T12:46:34;18.70;99.90
54518;DHT22;40423;53.176;6.002;2022-10-04T12:49:31;18.80;99.90
54518;DHT22;40423;53.176;6.002;2022-10-04T12:52:15;18.90;99.90
54518;DHT22;40423;53.176;6.002;2022-10-04T12:54:46;19.10;99.90
54518;DHT22;40423;53.176;6.002;2022-10-04T12:57:31;19.20;99.90
54518;DHT22;40423;53.176;6.002;2022-10-04T13:00:17;19.40;99.90
54518;DHT22;40423;53.176;6.002;2022-10-04T13:02:57;19.60;99.90
54518;DHT22;40423;53.176;6.002;2022-10-04T13:08:28;19.60;99.90
54518;DHT22;40423;53.176;6.002;2022-10-04T13:13:57;19.60;99.90
54518;DHT22;40423;53.176;6.002;2022-10-04T13:24:15;19.00;99.90
54518;DHT22;40423;53.176;6.002;2022-10-04T13:26:58;19.50;99.90
54518;DHT22;40423;53.176;6.002;2022-10-04T13:29:31;19.40;99.90
54518;DHT22;40423;53.176;6.002;2022-10-04T13:32:17;19.40;99.90
54518;DHT22;40423;53.176;6.002;2022-10-04T13:34:53;19.30;99.50
54518;DHT22;40423;53.176;6.002;2022-10-04T13:43:02;19.00;99.70
54518;DHT22;40423;53.176;6.002;2022-10-04T13:57:12;18.90;99.90
54518;DHT22;40423;53.176;6.002;2022-10-04T13:59:49;18.90;99.90
54518;DHT22;40423;53.176;6.002;2022-10-04T14:02:46;18.80;99.90
54518;DHT22;40423;53.176;6.002;2022-10-04T14:08:19;18.60;99.90
54518;DHT22;40423;53.176;6.002;2022-10-04T14:16:34;18.30;99.90
54518;DHT22;40423;53.176;6.002;2022-10-04T14:19:33;18.30;99.90
54518;DHT22;40423;53.176;6.002;2022-10-04T14:28:25;18.20;99.90
54518;DHT22;40423;53.176;6.002;2022-10-04T14:34:31;18.10;99.90
54518;DHT22;40423;53.176;6.002;2022-10-04T14:43:59;18.00;99.90
54518;DHT22;40423;53.176;6.002;2022-10-04T15:20:24;17.80;99.90
54518;DHT22;40423;53.176;6.002;2022-10-04T15:31:41;17.70;99.90
54518;DHT22;40423;53.176;6.002;2022-10-04T15:43:42;17.50;99.90
54518;DHT22;40423;53.176;6.002;2022-10-04T15:45:55;17.50;99.90
54518;DHT22;40423;53.176;6.002;2022-10-04T15:48:47;17.50;99.90
54518;DHT22;40423;53.176;6.002;2022-10-04T15:51:53;17.50;99.90
54518;DHT22;40423;53.176;6.002;2022-10-04T16:10:51;17.10;99.90
54518;DHT22;40423;53.176;6.002;2022-10-04T16:30:11;16.90;99.90
54518;DHT22;40423;53.176;6.002;2022-10-04T16:36:24;16.70;99.90
54518;DHT22;40423;53.176;6.002;2022-10-04T16:38:54;16.70;99.90
54518;DHT22;40423;53.176;6.002;2022-10-04T16:41:56;16.60;99.90
54518;DHT22;40423;53.176;6.002;2022-10-04T16:47:31;16.60;99.90
54518;DHT22;40423;53.176;6.002;2022-10-04T16:50:00;16.60;99.90
54518;DHT22;40423;53.176;6.002;2022-10-04T16:55:50;16.50;99.90
54518;DHT22;40423;53.176;6.002;2022-10-04T17:12:34;16.30;99.90
54518;DHT22;40423;53.176;6.002;2022-10-04T17:17:47;16.20;99.90
54518;DHT22;40423;53.176;6.002;2022-10-04T17:25:41;16.20;99.90
54518;DHT22;40423;53.176;6.002;2022-10-04T17:28:26;16.10;99.90
54518;DHT22;40423;53.176;6.002;2022-10-04T17:31:10;16.10;99.90
54518;DHT22;40423;53.176;6.002;2022-10-04T17:36:38;16.10;99.90
54518;DHT22;40423;53.176;6.002;2022-10-04T17:39:34;16.10;99.90
54518;DHT22;40423;53.176;6.002;2022-10-04T17:42:27;16.10;99.90
54518;DHT22;40423;53.176;6.002;2022-10-04T17:47:35;16.00;99.90
54518;DHT22;40423;53.176;6.002;2022-10-04T17:50:36;16.00;99.90
54518;DHT22;40423;53.176;6.002;2022-10-04T17:53:27;15.90;99.90
54518;DHT22;40423;53.176;6.002;2022-10-04T17:57:09;15.90;99.90
54518;DHT22;40423;53.176;6.002;2022-10-04T17:59:45;15.90;99.90
54518;DHT22;40423;53.176;6.002;2022-10-04T18:02:48;15.90;99.90
54518;DHT22;40423;53.176;6.002;2022-10-04T18:06:10;15.90;99.90
54518;DHT22;40423;53.176;6.002;2022-10-04T18:11:50;15.90;99.90
54518;DHT22;40423;53.176;6.002;2022-10-04T18:14:40;15.90;99.90
54518;DHT22;40423;53.176;6.002;2022-10-04T18:20:17;15.90;99.90
54518;DHT22;40423;53.176;6.002;2022-10-04T18:22:48;15.90;99.90
54518;DHT22;40423;53.176;6.002;2022-10-04T18:25:20;15.80;99.90
54518;DHT22;40423;53.176;6.002;2022-10-04T18:33:13;15.80;99.90
54518;DHT22;40423;53.176;6.002;2022-10-04T18:36:02;15.90;99.90
54518;DHT22;40423;53.176;6.002;2022-10-04T18:38:32;15.90;99.90
54518;DHT22;40423;53.176;6.002;2022-10-04T18:41:02;15.80;99.90
54518;DHT22;40423;53.176;6.002;2022-10-04T18:44:04;15.90;99.90
54518;DHT22;40423;53.176;6.002;2022-10-04T18:46:38;15.90;99.90
54518;DHT22;40423;53.176;6.002;2022-10-04T18:49:17;15.80;99.90
54518;DHT22;40423;53.176;6.002;2022-10-04T18:51:50;15.90;99.90
54518;DHT22;40423;53.176;6.002;2022-10-04T18:54:48;15.90;99.90
54518;DHT22;40423;53.176;6.002;2022-10-04T18:57:40;15.90;99.90
54518;DHT22;40423;53.176;6.002;2022-10-04T19:00:42;15.80;99.90
54518;DHT22;40423;53.176;6.002;2022-10-04T19:06:22;15.90;99.90
54518;DHT22;40423;53.176;6.002;2022-10-04T19:11:44;15.80;99.90
54518;DHT22;40423;53.176;6.002;2022-10-04T19:17:26;15.80;99.90
54518;DHT22;40423;53.176;6.002;2022-10-04T19:19:59;15.90;99.90
54518;DHT22;40423;53.176;6.002;2022-10-04T19:28:07;15.90;99.90
54518;DHT22;40423;53.176;6.002;2022-10-04T19:35:59;15.90;99.90
54518;DHT22;40423;53.176;6.002;2022-10-04T19:52:46;15.90;99.90
54518;DHT22;40423;53.176;6.002;2022-10-04T19:55:21;15.90;99.90
54518;DHT22;40423;53.176;6.002;2022-10-04T20:00:27;15.90;99.90
54518;DHT22;40423;53.176;6.002;2022-10-04T20:02:53;15.90;99.90
54518;DHT22;40423;53.176;6.002;2022-10-04T20:05:20;15.90;99.90
54518;DHT22;40423;53.176;6.002;2022-10-04T20:07:56;15.90;99.90
54518;DHT22;40423;53.176;6.002;2022-10-04T20:10:31;15.90;99.90
54518;DHT22;40423;53.176;6.002;2022-10-04T20:15:55;15.90;99.90
54518;DHT22;40423;53.176;6.002;2022-10-04T20:26:10;15.90;99.90
54518;DHT22;40423;53.176;6.002;2022-10-04T20:28:40;15.80;99.90
54518;DHT22;40423;53.176;6.002;2022-10-04T20:33:52;15.80;99.90
54518;DHT22;40423;53.176;6.002;2022-10-04T20:38:56;15.80;99.90
54518;DHT22;40423;53.176;6.002;2022-10-04T20:44:02;15.80;99.90
54518;DHT22;40423;53.176;6.002;2022-10-04T20:46:36;15.80;99.90
54518;DHT22;40423;53.176;6.002;2022-10-04T20:49:04;15.80;99.90
54518;DHT22;40423;53.176;6.002;2022-10-04T20:51:38;15.80;99.90
54518;DHT22;40423;53.176;6.002;2022-10-04T20:54:04;15.80;99.90
54518;DHT22;40423;53.176;6.002;2022-10-04T20:56:32;15.80;99.90
54518;DHT22;40423;53.176;6.002;2022-10-04T20:59:02;15.80;99.90
54518;DHT22;40423;53.176;6.002;2022-10-04T21:01:34;15.80;99.90
54518;DHT22;40423;53.176;6.002;2022-10-04T21:04:26;15.80;99.90
54518;DHT22;40423;53.176;6.002;2022-10-04T21:07:19;15.80;99.90
54518;DHT22;40423;53.176;6.002;2022-10-04T21:09:45;15.80;99.90
54518;DHT22;40423;53.176;6.002;2022-10-04T21:17:32;15.70;99.90
54518;DHT22;40423;53.176;6.002;2022-10-04T21:19:58;15.70;99.90
54518;DHT22;40423;53.176;6.002;2022-10-04T21:24:57;15.70;99.90
54518;DHT22;40423;53.176;6.002;2022-10-04T21:27:53;15.70;99.90
54518;DHT22;40423;53.176;6.002;2022-10-04T21:30:19;15.80;99.90
54518;DHT22;40423;53.176;6.002;2022-10-04T21:32:45;15.70;99.90
54518;DHT22;40423;53.176;6.002;2022-10-04T21:35:11;15.70;99.90
54518;DHT22;40423;53.176;6.002;2022-10-04T21:37:37;15.70;99.90
54518;DHT22;40423;53.176;6.002;2022-10-04T21:40:05;15.70;99.90
54518;DHT22;40423;53.176;6.002;2022-10-04T21:42:31;15.70;99.90
54518;DHT22;40423;53.176;6.002;2022-10-04T21:44:57;15.70;99.90
54518;DHT22;40423;53.176;6.002;2022-10-04T21:47:22;15.70;99.90
54518;DHT22;40423;53.176;6.002;2022-10-04T21:49:49;15.70;99.90
54518;DHT22;40423;53.176;6.002;2022-10-04T21:52:16;15.70;99.90
54518;DHT22;40423;53.176;6.002;2022-10-04T21:54:43;15.70;99.90
54518;DHT22;40423;53.176;6.002;2022-10-04T21:57:09;15.70;99.90
54518;DHT22;40423;53.176;6.002;2022-10-04T21:59:35;15.70;99.90
54518;DHT22;40423;53.176;6.002;2022-10-04T22:02:00;15.70;99.90
54518;DHT22;40423;53.176;6.002;2022-10-04T22:04:26;15.70;99.90
54518;DHT22;40423;53.176;6.002;2022-10-04T22:06:52;15.70;99.90
54518;DHT22;40423;53.176;6.002;2022-10-04T22:09:18;15.70;99.90
54518;DHT22;40423;53.176;6.002;2022-10-04T22:11:44;15.80;99.90
54518;DHT22;40423;53.176;6.002;2022-10-04T22:14:09;15.70;99.90
54518;DHT22;40423;53.176;6.002;2022-10-04T22:16:35;15.80;99.90
54518;DHT22;40423;53.176;6.002;2022-10-04T22:19:01;15.70;99.90
54518;DHT22;40423;53.176;6.002;2022-10-04T22:21:26;15.80;99.90
54518;DHT22;40423;53.176;6.002;2022-10-04T22:23:52;15.80;99.90
54518;DHT22;40423;53.176;6.002;2022-10-04T22:26:20;15.80;99.90
54518;DHT22;40423;53.176;6.002;2022-10-04T22:28:48;15.80;99.90
54518;DHT22;40423;53.176;6.002;2022-10-04T22:31:17;15.80;99.90
54518;DHT22;40423;53.176;6.002;2022-10-04T22:33:45;15.80;99.90
54518;DHT22;40423;53.176;6.002;2022-10-04T22:36:20;15.80;99.90
54518;DHT22;40423;53.176;6.002;2022-10-04T22:38:59;15.80;99.90
54518;DHT22;40423;53.176;6.002;2022-10-04T22:41:29;15.90;99.90
54518;DHT22;40423;53.176;6.002;2022-10-04T22:43:57;15.90;99.90
54518;DHT22;40423;53.176;6.002;2022-10-04T22:46:29;15.90;99.90
54518;DHT22;40423;53.176;6.002;2022-10-04T22:48:56;15.90;99.90
54518;DHT22;40423;53.176;6.002;2022-10-04T22:51:22;15.90;99.90
54518;DHT22;40423;53.176;6.002;2022-10-04T22:53:48;15.90;99.90
54518;DHT22;40423;53.176;6.002;2022-10-04T22:56:14;15.90;99.90
54518;DHT22;40423;53.176;6.002;2022-10-04T22:58:41;15.90;99.90
54518;DHT22;40423;53.176;6.002;2022-10-04T23:01:16;15.90;99.90
54518;DHT22;40423;53.176;6.002;2022-10-04T23:03:47;15.90;99.90
54518;DHT22;40423;53.176;6.002;2022-10-04T23:06:13;16.00;99.90
54518;DHT22;40423;53.176;6.002;2022-10-04T23:08:43;15.90;99.90
54518;DHT22;40423;53.176;6.002;2022-10-04T23:11:09;16.00;99.90
54518;DHT22;40423;53.176;6.002;2022-10-04T23:13:36;16.00;99.90
54518;DHT22;40423;53.176;6.002;2022-10-04T23:16:20;15.90;99.90
54518;DHT22;40423;53.176;6.002;2022-10-04T23:18:46;15.90;99.90
54518;DHT22;40423;53.176;6.002;2022-10-04T23:21:22;16.00;99.90
54518;DHT22;40423;53.176;6.002;2022-10-04T23:23:49;16.00;99.90
54518;DHT22;40423;53.176;6.002;2022-10-04T23:26:22;16.00;99.90
54518;DHT22;40423;53.176;6.002;2022-10-04T23:28:49;15.90;99.90
54518;DHT22;40423;53.176;6.002;2022-10-04T23:31:22;15.90;99.90
54518;DHT22;40423;53.176;6.002;2022-10-04T23:33:49;15.90;99.90
54518;DHT22;40423;53.176;6.002;2022-10-04T23:36:16;15.90;99.90
54518;DHT22;40423;53.176;6.002;2022-10-04T23:38:46;15.90;99.90
54518;DHT22;40423;53.176;6.002;2022-10-04T23:41:13;15.90;99.90
54518;DHT22;40423;53.176;6.002;2022-10-04T23:43:39;15.90;99.90
54518;DHT22;40423;53.176;6.002;2022-10-04T23:46:12;15.90;99.90
54518;DHT22;40423;53.176;6.002;2022-10-04T23:48:39;15.90;99.90
54518;DHT22;40423;53.176;6.002;2022-10-04T23:51:05;15.80;99.90
54518;DHT22;40423;53.176;6.002;2022-10-04T23:53:34;15.80;99.90
54518;DHT22;40423;53.176;6.002;2022-10-04T23:56:04;15.80;99.90
54518;DHT22;40423;53.176;6.002;2022-10-04T23:58:36;15.80;99.90
